sensor_id;sensor_type;location;lat;lon;timestamp;pressure;altitude;pressure_sealevel;temperature
22322;BMP180;11328;53.928;18.522;2024-02-26T00:01:59;99283.00;;;6.20
22322;BMP180;11328;53.928;18.522;2024-02-26T00:04:26;99281.00;;;6.10
22322;BMP180;11328;53.928;18.522;2024-02-26T00:06:53;99277.00;;;6.10
22322;BMP180;11328;53.928;18.522;2024-02-26T00:09:21;99281.00;;;5.90
22322;BMP180;11328;53.928;18.522;2024-02-26T00:11:48;99280.00;;;5.90
22322;BMP180;11328;53.928;18.522;2024-02-26T00:14:16;99280.00;;;6.00
22322;BMP180;11328;53.928;18.522;2024-02-26T00:16:43;99276.00;;;6.10
22322;BMP180;11328;53.928;18.522;2024-02-26T00:19:12;99263.00;;;6.00
22322;BMP180;11328;53.928;18.522;2024-02-26T00:21:42;99264.00;;;5.80
22322;BMP180;11328;53.928;18.522;2024-02-26T00:24:09;99267.00;;;6.00
22322;BMP180;11328;53.928;18.522;2024-02-26T00:26:36;99261.00;;;6.10
22322;BMP180;11328;53.928;18.522;2024-02-26T00:29:04;99272.00;;;6.10
22322;BMP180;11328;53.928;18.522;2024-02-26T00:31:31;99256.00;;;6.00
22322;BMP180;11328;53.928;18.522;2024-02-26T00:33:58;99268.00;;;5.70
22322;BMP180;11328;53.928;18.522;2024-02-26T00:36:26;99269.00;;;5.50
22322;BMP180;11328;53.928;18.522;2024-02-26T00:38:53;99269.00;;;5.20
22322;BMP180;11328;53.928;18.522;2024-02-26T00:41:21;99266.00;;;4.90
22322;BMP180;11328;53.928;18.522;2024-02-26T00:43:48;99259.00;;;5.00
22322;BMP180;11328;53.928;18.522;2024-02-26T00:46:15;99254.00;;;5.10
22322;BMP180;11328;53.928;18.522;2024-02-26T00:48:42;99253.00;;;5.30
22322;BMP180;11328;53.928;18.522;2024-02-26T00:51:10;99254.00;;;5.40
22322;BMP180;11328;53.928;18.522;2024-02-26T00:53:37;99251.00;;;5.50
22322;BMP180;11328;53.928;18.522;2024-02-26T00:56:04;99233.00;;;5.50
22322;BMP180;11328;53.928;18.522;2024-02-26T00:58:32;99239.00;;;5.40
22322;BMP180;11328;53.928;18.522;2024-02-26T01:00:59;99243.00;;;5.20
22322;BMP180;11328;53.928;18.522;2024-02-26T01:03:26;99242.00;;;5.10
22322;BMP180;11328;53.928;18.522;2024-02-26T01:05:53;99244.00;;;4.90
22322;BMP180;11328;53.928;18.522;2024-02-26T01:08:24;99235.00;;;4.80
22322;BMP180;11328;53.928;18.522;2024-02-26T01:10:51;99244.00;;;4.80
22322;BMP180;11328;53.928;18.522;2024-02-26T01:13:19;99232.00;;;4.70
22322;BMP180;11328;53.928;18.522;2024-02-26T01:15:46;99226.00;;;4.60
22322;BMP180;11328;53.928;18.522;2024-02-26T01:18:13;99235.00;;;4.50
22322;BMP180;11328;53.928;18.522;2024-02-26T01:20:40;99232.00;;;4.40
22322;BMP180;11328;53.928;18.522;2024-02-26T01:23:07;99230.00;;;4.50
22322;BMP180;11328;53.928;18.522;2024-02-26T01:25:34;99205.00;;;4.40
22322;BMP180;11328;53.928;18.522;2024-02-26T01:28:01;99232.00;;;4.50
22322;BMP180;11328;53.928;18.522;2024-02-26T01:30:28;99240.00;;;4.50
22322;BMP180;11328;53.928;18.522;2024-02-26T01:32:55;99240.00;;;4.70
22322;BMP180;11328;53.928;18.522;2024-02-26T01:35:22;99239.00;;;4.80
22322;BMP180;11328;53.928;18.522;2024-02-26T01:37:49;99249.00;;;5.00
22322;BMP180;11328;53.928;18.522;2024-02-26T01:40:16;99251.00;;;5.00
22322;BMP180;11328;53.928;18.522;2024-02-26T01:42:46;99249.00;;;5.10
22322;BMP180;11328;53.928;18.522;2024-02-26T01:45:16;99247.00;;;5.00
22322;BMP180;11328;53.928;18.522;2024-02-26T01:47:51;99244.00;;;4.80
22322;BMP180;11328;53.928;18.522;2024-02-26T01:50:19;99245.00;;;4.70
22322;BMP180;11328;53.928;18.522;2024-02-26T01:52:47;99242.00;;;4.60
22322;BMP180;11328;53.928;18.522;2024-02-26T01:55:17;99252.00;;;4.40
22322;BMP180;11328;53.928;18.522;2024-02-26T01:57:48;99242.00;;;4.30
22322;BMP180;11328;53.928;18.522;2024-02-26T02:00:16;99233.00;;;4.20
22322;BMP180;11328;53.928;18.522;2024-02-26T02:02:45;99238.00;;;4.20
22322;BMP180;11328;53.928;18.522;2024-02-26T02:05:17;99241.00;;;4.20
22322;BMP180;11328;53.928;18.522;2024-02-26T02:07:45;99244.00;;;4.20
22322;BMP180;11328;53.928;18.522;2024-02-26T02:10:13;99247.00;;;4.10
22322;BMP180;11328;53.928;18.522;2024-02-26T02:12:41;99243.00;;;4.00
22322;BMP180;11328;53.928;18.522;2024-02-26T02:15:08;99246.00;;;4.00
22322;BMP180;11328;53.928;18.522;2024-02-26T02:17:35;99241.00;;;3.90
22322;BMP180;11328;53.928;18.522;2024-02-26T02:20:03;99239.00;;;4.00
22322;BMP180;11328;53.928;18.522;2024-02-26T02:22:31;99247.00;;;4.10
22322;BMP180;11328;53.928;18.522;2024-02-26T02:24:59;99247.00;;;4.20
22322;BMP180;11328;53.928;18.522;2024-02-26T02:27:29;99239.00;;;4.10
22322;BMP180;11328;53.928;18.522;2024-02-26T02:29:58;99239.00;;;4.10
22322;BMP180;11328;53.928;18.522;2024-02-26T02:32:27;99235.00;;;4.10
22322;BMP180;11328;53.928;18.522;2024-02-26T02:34:56;99247.00;;;4.20
22322;BMP180;11328;53.928;18.522;2024-02-26T02:37:23;99245.00;;;4.40
22322;BMP180;11328;53.928;18.522;2024-02-26T02:39:50;99241.00;;;4.40
22322;BMP180;11328;53.928;18.522;2024-02-26T02:42:18;99245.00;;;4.30
22322;BMP180;11328;53.928;18.522;2024-02-26T02:44:45;99243.00;;;4.10
22322;BMP180;11328;53.928;18.522;2024-02-26T02:47:13;99246.00;;;4.10
22322;BMP180;11328;53.928;18.522;2024-02-26T02:49:40;99245.00;;;4.20
22322;BMP180;11328;53.928;18.522;2024-02-26T02:52:08;99245.00;;;4.50
22322;BMP180;11328;53.928;18.522;2024-02-26T02:54:35;99242.00;;;4.30
22322;BMP180;11328;53.928;18.522;2024-02-26T02:57:03;99239.00;;;4.40
22322;BMP180;11328;53.928;18.522;2024-02-26T02:59:31;99248.00;;;4.40
22322;BMP180;11328;53.928;18.522;2024-02-26T03:01:58;99244.00;;;4.50
22322;BMP180;11328;53.928;18.522;2024-02-26T03:04:25;99255.00;;;4.60
22322;BMP180;11328;53.928;18.522;2024-02-26T03:06:52;99241.00;;;4.70
22322;BMP180;11328;53.928;18.522;2024-02-26T03:09:20;99252.00;;;4.60
22322;BMP180;11328;53.928;18.522;2024-02-26T03:11:47;99257.00;;;4.70
22322;BMP180;11328;53.928;18.522;2024-02-26T03:14:16;99257.00;;;4.70
22322;BMP180;11328;53.928;18.522;2024-02-26T03:16:43;99270.00;;;4.80
22322;BMP180;11328;53.928;18.522;2024-02-26T03:19:10;99262.00;;;4.70
22322;BMP180;11328;53.928;18.522;2024-02-26T03:21:38;99253.00;;;4.50
22322;BMP180;11328;53.928;18.522;2024-02-26T03:24:05;99251.00;;;4.20
22322;BMP180;11328;53.928;18.522;2024-02-26T03:26:33;99256.00;;;4.20
22322;BMP180;11328;53.928;18.522;2024-02-26T03:29:00;99258.00;;;4.20
22322;BMP180;11328;53.928;18.522;2024-02-26T03:31:28;99264.00;;;3.90
22322;BMP180;11328;53.928;18.522;2024-02-26T03:33:55;99257.00;;;3.80
22322;BMP180;11328;53.928;18.522;2024-02-26T03:36:22;99264.00;;;3.90
22322;BMP180;11328;53.928;18.522;2024-02-26T03:38:50;99253.00;;;4.00
22322;BMP180;11328;53.928;18.522;2024-02-26T03:41:17;99261.00;;;3.90
22322;BMP180;11328;53.928;18.522;2024-02-26T03:43:44;99251.00;;;3.70
22322;BMP180;11328;53.928;18.522;2024-02-26T03:46:12;99253.00;;;3.50
22322;BMP180;11328;53.928;18.522;2024-02-26T03:48:41;99250.00;;;3.50
22322;BMP180;11328;53.928;18.522;2024-02-26T03:51:09;99247.00;;;3.40
22322;BMP180;11328;53.928;18.522;2024-02-26T03:53:39;99256.00;;;3.50
22322;BMP180;11328;53.928;18.522;2024-02-26T03:56:07;99256.00;;;3.70
22322;BMP180;11328;53.928;18.522;2024-02-26T03:58:34;99264.00;;;3.80
22322;BMP180;11328;53.928;18.522;2024-02-26T04:01:01;99266.00;;;3.80
22322;BMP180;11328;53.928;18.522;2024-02-26T04:03:28;99261.00;;;3.80
22322;BMP180;11328;53.928;18.522;2024-02-26T04:05:55;99265.00;;;3.80
22322;BMP180;11328;53.928;18.522;2024-02-26T04:08:23;99265.00;;;3.80
22322;BMP180;11328;53.928;18.522;2024-02-26T04:10:50;99258.00;;;3.70
22322;BMP180;11328;53.928;18.522;2024-02-26T04:13:18;99268.00;;;3.60
22322;BMP180;11328;53.928;18.522;2024-02-26T04:15:45;99268.00;;;3.60
22322;BMP180;11328;53.928;18.522;2024-02-26T04:18:13;99271.00;;;3.60
22322;BMP180;11328;53.928;18.522;2024-02-26T04:20:41;99273.00;;;3.50
22322;BMP180;11328;53.928;18.522;2024-02-26T04:23:09;99270.00;;;3.60
22322;BMP180;11328;53.928;18.522;2024-02-26T04:25:36;99273.00;;;3.60
22322;BMP180;11328;53.928;18.522;2024-02-26T04:28:03;99267.00;;;3.50
22322;BMP180;11328;53.928;18.522;2024-02-26T04:30:31;99263.00;;;3.50
22322;BMP180;11328;53.928;18.522;2024-02-26T04:32:58;99272.00;;;3.50
22322;BMP180;11328;53.928;18.522;2024-02-26T04:35:25;99276.00;;;3.50
22322;BMP180;11328;53.928;18.522;2024-02-26T04:37:52;99278.00;;;3.60
22322;BMP180;11328;53.928;18.522;2024-02-26T04:40:19;99280.00;;;3.90
22322;BMP180;11328;53.928;18.522;2024-02-26T04:42:47;99278.00;;;4.00
22322;BMP180;11328;53.928;18.522;2024-02-26T04:45:14;99290.00;;;4.10
22322;BMP180;11328;53.928;18.522;2024-02-26T04:47:41;99284.00;;;4.10
22322;BMP180;11328;53.928;18.522;2024-02-26T04:50:08;99254.00;;;4.20
22322;BMP180;11328;53.928;18.522;2024-02-26T04:52:37;99287.00;;;4.40
22322;BMP180;11328;53.928;18.522;2024-02-26T04:55:04;99289.00;;;4.60
22322;BMP180;11328;53.928;18.522;2024-02-26T04:57:31;99289.00;;;4.70
22322;BMP180;11328;53.928;18.522;2024-02-26T04:59:58;99295.00;;;4.80
22322;BMP180;11328;53.928;18.522;2024-02-26T05:02:25;99281.00;;;4.80
22322;BMP180;11328;53.928;18.522;2024-02-26T05:04:53;99297.00;;;4.90
22322;BMP180;11328;53.928;18.522;2024-02-26T05:07:20;99298.00;;;4.80
22322;BMP180;11328;53.928;18.522;2024-02-26T05:09:47;99306.00;;;4.70
22322;BMP180;11328;53.928;18.522;2024-02-26T05:12:16;99305.00;;;4.70
22322;BMP180;11328;53.928;18.522;2024-02-26T05:14:43;99311.00;;;4.90
22322;BMP180;11328;53.928;18.522;2024-02-26T05:17:10;99311.00;;;4.90
22322;BMP180;11328;53.928;18.522;2024-02-26T05:19:37;99311.00;;;4.90
22322;BMP180;11328;53.928;18.522;2024-02-26T05:22:04;99313.00;;;4.80
22322;BMP180;11328;53.928;18.522;2024-02-26T05:24:31;99319.00;;;4.70
22322;BMP180;11328;53.928;18.522;2024-02-26T05:27:00;99314.00;;;4.60
22322;BMP180;11328;53.928;18.522;2024-02-26T05:29:27;99314.00;;;4.60
22322;BMP180;11328;53.928;18.522;2024-02-26T05:31:54;99315.00;;;4.60
22322;BMP180;11328;53.928;18.522;2024-02-26T05:34:21;99311.00;;;4.50
22322;BMP180;11328;53.928;18.522;2024-02-26T05:36:49;99317.00;;;4.40
22322;BMP180;11328;53.928;18.522;2024-02-26T05:39:16;99322.00;;;4.30
22322;BMP180;11328;53.928;18.522;2024-02-26T05:41:46;99328.00;;;4.30
22322;BMP180;11328;53.928;18.522;2024-02-26T05:44:14;99319.00;;;4.10
22322;BMP180;11328;53.928;18.522;2024-02-26T05:46:42;99327.00;;;3.90
22322;BMP180;11328;53.928;18.522;2024-02-26T05:49:09;99325.00;;;3.90
22322;BMP180;11328;53.928;18.522;2024-02-26T05:51:36;99324.00;;;3.80
22322;BMP180;11328;53.928;18.522;2024-02-26T05:54:03;99335.00;;;3.80
22322;BMP180;11328;53.928;18.522;2024-02-26T05:56:30;99332.00;;;3.70
22322;BMP180;11328;53.928;18.522;2024-02-26T05:58:57;99337.00;;;3.60
22322;BMP180;11328;53.928;18.522;2024-02-26T06:01:24;99342.00;;;3.50
22322;BMP180;11328;53.928;18.522;2024-02-26T06:03:52;99347.00;;;3.40
22322;BMP180;11328;53.928;18.522;2024-02-26T06:06:19;99348.00;;;3.40
22322;BMP180;11328;53.928;18.522;2024-02-26T06:08:49;99351.00;;;3.40
22322;BMP180;11328;53.928;18.522;2024-02-26T06:11:16;99336.00;;;3.30
22322;BMP180;11328;53.928;18.522;2024-02-26T06:13:44;99349.00;;;3.30
22322;BMP180;11328;53.928;18.522;2024-02-26T06:16:12;99345.00;;;3.30
22322;BMP180;11328;53.928;18.522;2024-02-26T06:18:39;99350.00;;;3.10
22322;BMP180;11328;53.928;18.522;2024-02-26T06:21:09;99360.00;;;3.10
22322;BMP180;11328;53.928;18.522;2024-02-26T06:23:39;99343.00;;;3.10
22322;BMP180;11328;53.928;18.522;2024-02-26T06:26:07;99359.00;;;3.20
22322;BMP180;11328;53.928;18.522;2024-02-26T06:28:34;99359.00;;;3.20
22322;BMP180;11328;53.928;18.522;2024-02-26T06:31:02;99363.00;;;3.20
22322;BMP180;11328;53.928;18.522;2024-02-26T06:33:30;99365.00;;;3.20
22322;BMP180;11328;53.928;18.522;2024-02-26T06:35:57;99363.00;;;3.20
22322;BMP180;11328;53.928;18.522;2024-02-26T06:38:24;99369.00;;;3.10
22322;BMP180;11328;53.928;18.522;2024-02-26T06:40:51;99366.00;;;3.10
22322;BMP180;11328;53.928;18.522;2024-02-26T06:43:18;99366.00;;;3.10
22322;BMP180;11328;53.928;18.522;2024-02-26T06:45:45;99365.00;;;3.20
22322;BMP180;11328;53.928;18.522;2024-02-26T06:48:12;99371.00;;;3.10
22322;BMP180;11328;53.928;18.522;2024-02-26T06:50:39;99367.00;;;3.20
22322;BMP180;11328;53.928;18.522;2024-02-26T06:53:08;99369.00;;;3.20
22322;BMP180;11328;53.928;18.522;2024-02-26T06:55:35;99374.00;;;3.30
22322;BMP180;11328;53.928;18.522;2024-02-26T06:58:04;99379.00;;;3.40
22322;BMP180;11328;53.928;18.522;2024-02-26T07:00:31;99380.00;;;3.50
22322;BMP180;11328;53.928;18.522;2024-02-26T07:02:58;99387.00;;;3.50
22322;BMP180;11328;53.928;18.522;2024-02-26T07:05:25;99363.00;;;3.60
22322;BMP180;11328;53.928;18.522;2024-02-26T07:07:52;99387.00;;;3.60
22322;BMP180;11328;53.928;18.522;2024-02-26T07:10:19;99397.00;;;3.60
22322;BMP180;11328;53.928;18.522;2024-02-26T07:12:46;99396.00;;;3.60
22322;BMP180;11328;53.928;18.522;2024-02-26T07:15:14;99393.00;;;3.60
22322;BMP180;11328;53.928;18.522;2024-02-26T07:17:41;99397.00;;;3.80
22322;BMP180;11328;53.928;18.522;2024-02-26T07:20:09;99403.00;;;4.10
22322;BMP180;11328;53.928;18.522;2024-02-26T07:22:38;99403.00;;;4.30
22322;BMP180;11328;53.928;18.522;2024-02-26T07:25:05;99413.00;;;4.50
22322;BMP180;11328;53.928;18.522;2024-02-26T07:27:34;99409.00;;;4.50
22322;BMP180;11328;53.928;18.522;2024-02-26T07:30:02;99405.00;;;4.70
22322;BMP180;11328;53.928;18.522;2024-02-26T07:32:29;99409.00;;;4.70
22322;BMP180;11328;53.928;18.522;2024-02-26T07:34:56;99412.00;;;4.80
22322;BMP180;11328;53.928;18.522;2024-02-26T07:37:23;99414.00;;;4.90
22322;BMP180;11328;53.928;18.522;2024-02-26T07:39:50;99428.00;;;5.00
22322;BMP180;11328;53.928;18.522;2024-02-26T07:42:17;99416.00;;;5.00
22322;BMP180;11328;53.928;18.522;2024-02-26T07:44:45;99411.00;;;4.80
22322;BMP180;11328;53.928;18.522;2024-02-26T07:47:12;99414.00;;;4.90
22322;BMP180;11328;53.928;18.522;2024-02-26T07:49:40;99419.00;;;5.10
22322;BMP180;11328;53.928;18.522;2024-02-26T07:52:07;99412.00;;;5.30
22322;BMP180;11328;53.928;18.522;2024-02-26T07:54:34;99430.00;;;5.40
22322;BMP180;11328;53.928;18.522;2024-02-26T07:57:02;99433.00;;;5.60
22322;BMP180;11328;53.928;18.522;2024-02-26T07:59:32;99428.00;;;5.60
22322;BMP180;11328;53.928;18.522;2024-02-26T08:01:59;99432.00;;;5.60
22322;BMP180;11328;53.928;18.522;2024-02-26T08:04:27;99435.00;;;5.80
22322;BMP180;11328;53.928;18.522;2024-02-26T08:06:54;99440.00;;;5.80
22322;BMP180;11328;53.928;18.522;2024-02-26T08:09:21;99436.00;;;5.90
22322;BMP180;11328;53.928;18.522;2024-02-26T08:11:49;99447.00;;;6.20
22322;BMP180;11328;53.928;18.522;2024-02-26T08:14:16;99446.00;;;6.30
22322;BMP180;11328;53.928;18.522;2024-02-26T08:16:43;99450.00;;;6.50
22322;BMP180;11328;53.928;18.522;2024-02-26T08:19:10;99460.00;;;6.60
22322;BMP180;11328;53.928;18.522;2024-02-26T08:21:38;99451.00;;;6.80
22322;BMP180;11328;53.928;18.522;2024-02-26T08:24:05;99462.00;;;6.80
22322;BMP180;11328;53.928;18.522;2024-02-26T08:26:32;99474.00;;;7.00
22322;BMP180;11328;53.928;18.522;2024-02-26T08:28:59;99474.00;;;7.10
22322;BMP180;11328;53.928;18.522;2024-02-26T08:31:27;99474.00;;;7.20
22322;BMP180;11328;53.928;18.522;2024-02-26T08:33:57;99469.00;;;7.20
22322;BMP180;11328;53.928;18.522;2024-02-26T08:36:25;99468.00;;;7.30
22322;BMP180;11328;53.928;18.522;2024-02-26T08:38:52;99470.00;;;7.40
22322;BMP180;11328;53.928;18.522;2024-02-26T08:41:19;99474.00;;;7.60
22322;BMP180;11328;53.928;18.522;2024-02-26T08:43:47;99476.00;;;7.70
22322;BMP180;11328;53.928;18.522;2024-02-26T08:46:14;99484.00;;;7.70
22322;BMP180;11328;53.928;18.522;2024-02-26T08:48:41;99484.00;;;7.70
22322;BMP180;11328;53.928;18.522;2024-02-26T08:51:09;99489.00;;;7.90
22322;BMP180;11328;53.928;18.522;2024-02-26T08:53:36;99492.00;;;7.90
22322;BMP180;11328;53.928;18.522;2024-02-26T08:56:10;99500.00;;;8.00
22322;BMP180;11328;53.928;18.522;2024-02-26T08:58:45;99500.00;;;8.00
22322;BMP180;11328;53.928;18.522;2024-02-26T09:01:15;99511.00;;;8.00
22322;BMP180;11328;53.928;18.522;2024-02-26T09:03:43;99508.00;;;8.00
22322;BMP180;11328;53.928;18.522;2024-02-26T09:06:10;99496.00;;;8.10
22322;BMP180;11328;53.928;18.522;2024-02-26T09:08:38;99506.00;;;8.20
22322;BMP180;11328;53.928;18.522;2024-02-26T09:11:05;99515.00;;;8.40
22322;BMP180;11328;53.928;18.522;2024-02-26T09:13:32;99501.00;;;8.60
22322;BMP180;11328;53.928;18.522;2024-02-26T09:15:59;99509.00;;;8.80
22322;BMP180;11328;53.928;18.522;2024-02-26T09:18:27;99519.00;;;8.80
22322;BMP180;11328;53.928;18.522;2024-02-26T09:20:56;99514.00;;;8.90
22322;BMP180;11328;53.928;18.522;2024-02-26T09:23:23;99516.00;;;9.00
22322;BMP180;11328;53.928;18.522;2024-02-26T09:25:50;99532.00;;;9.00
22322;BMP180;11328;53.928;18.522;2024-02-26T09:28:17;99514.00;;;9.00
22322;BMP180;11328;53.928;18.522;2024-02-26T09:30:44;99519.00;;;8.90
22322;BMP180;11328;53.928;18.522;2024-02-26T09:33:13;99520.00;;;8.80
22322;BMP180;11328;53.928;18.522;2024-02-26T09:35:41;99522.00;;;8.90
22322;BMP180;11328;53.928;18.522;2024-02-26T09:38:08;99527.00;;;8.80
22322;BMP180;11328;53.928;18.522;2024-02-26T09:40:36;99521.00;;;8.70
22322;BMP180;11328;53.928;18.522;2024-02-26T09:43:05;99525.00;;;8.80
22322;BMP180;11328;53.928;18.522;2024-02-26T09:45:35;99531.00;;;8.80
22322;BMP180;11328;53.928;18.522;2024-02-26T09:48:04;99523.00;;;8.90
22322;BMP180;11328;53.928;18.522;2024-02-26T09:50:34;99532.00;;;9.10
22322;BMP180;11328;53.928;18.522;2024-02-26T09:53:02;99504.00;;;9.30
22322;BMP180;11328;53.928;18.522;2024-02-26T09:55:32;99535.00;;;9.50
22322;BMP180;11328;53.928;18.522;2024-02-26T09:57:59;99529.00;;;9.60
22322;BMP180;11328;53.928;18.522;2024-02-26T10:00:30;99533.00;;;9.50
22322;BMP180;11328;53.928;18.522;2024-02-26T10:03:06;99533.00;;;9.50
22322;BMP180;11328;53.928;18.522;2024-02-26T10:05:37;99531.00;;;9.70
22322;BMP180;11328;53.928;18.522;2024-02-26T10:08:05;99521.00;;;10.00
22322;BMP180;11328;53.928;18.522;2024-02-26T10:10:33;99525.00;;;10.20
22322;BMP180;11328;53.928;18.522;2024-02-26T10:13:00;99535.00;;;10.30
22322;BMP180;11328;53.928;18.522;2024-02-26T10:15:28;99544.00;;;10.30
22322;BMP180;11328;53.928;18.522;2024-02-26T10:17:55;99549.00;;;10.10
22322;BMP180;11328;53.928;18.522;2024-02-26T10:20:23;99554.00;;;9.90
22322;BMP180;11328;53.928;18.522;2024-02-26T10:22:51;99552.00;;;9.90
22322;BMP180;11328;53.928;18.522;2024-02-26T10:25:19;99562.00;;;9.70
22322;BMP180;11328;53.928;18.522;2024-02-26T10:27:47;99557.00;;;9.80
22322;BMP180;11328;53.928;18.522;2024-02-26T10:30:22;99562.00;;;9.80
22322;BMP180;11328;53.928;18.522;2024-02-26T10:32:50;99566.00;;;9.90
22322;BMP180;11328;53.928;18.522;2024-02-26T10:35:18;99567.00;;;10.10
22322;BMP180;11328;53.928;18.522;2024-02-26T10:37:49;99555.00;;;10.10
22322;BMP180;11328;53.928;18.522;2024-02-26T10:40:17;99574.00;;;10.10
22322;BMP180;11328;53.928;18.522;2024-02-26T10:42:44;99585.00;;;10.30
22322;BMP180;11328;53.928;18.522;2024-02-26T10:45:14;99567.00;;;10.40
22322;BMP180;11328;53.928;18.522;2024-02-26T10:47:41;99569.00;;;10.40
22322;BMP180;11328;53.928;18.522;2024-02-26T10:50:09;99548.00;;;10.50
22322;BMP180;11328;53.928;18.522;2024-02-26T10:52:40;99581.00;;;10.70
22322;BMP180;11328;53.928;18.522;2024-02-26T10:55:16;99578.00;;;10.70
22322;BMP180;11328;53.928;18.522;2024-02-26T10:57:48;99574.00;;;10.60
22322;BMP180;11328;53.928;18.522;2024-02-26T11:00:16;99573.00;;;10.80
22322;BMP180;11328;53.928;18.522;2024-02-26T11:02:45;99562.00;;;10.90
22322;BMP180;11328;53.928;18.522;2024-02-26T11:05:17;99561.00;;;11.00
22322;BMP180;11328;53.928;18.522;2024-02-26T11:07:44;99561.00;;;11.00
22322;BMP180;11328;53.928;18.522;2024-02-26T11:10:16;99560.00;;;11.00
22322;BMP180;11328;53.928;18.522;2024-02-26T11:12:44;99561.00;;;10.90
22322;BMP180;11328;53.928;18.522;2024-02-26T11:15:12;99539.00;;;10.80
22322;BMP180;11328;53.928;18.522;2024-02-26T11:17:40;99557.00;;;10.80
22322;BMP180;11328;53.928;18.522;2024-02-26T11:20:11;99564.00;;;10.90
22322;BMP180;11328;53.928;18.522;2024-02-26T11:22:40;99538.00;;;10.90
22322;BMP180;11328;53.928;18.522;2024-02-26T11:25:08;99566.00;;;10.90
22322;BMP180;11328;53.928;18.522;2024-02-26T11:27:49;99565.00;;;11.00
22322;BMP180;11328;53.928;18.522;2024-02-26T11:30:18;99567.00;;;11.10
22322;BMP180;11328;53.928;18.522;2024-02-26T11:32:47;99562.00;;;11.20
22322;BMP180;11328;53.928;18.522;2024-02-26T11:35:16;99567.00;;;11.20
22322;BMP180;11328;53.928;18.522;2024-02-26T11:37:57;99569.00;;;11.30
22322;BMP180;11328;53.928;18.522;2024-02-26T11:40:26;99567.00;;;11.30
22322;BMP180;11328;53.928;18.522;2024-02-26T11:42:54;99569.00;;;11.60
22322;BMP180;11328;53.928;18.522;2024-02-26T11:48:20;99584.00;;;11.70
22322;BMP180;11328;53.928;18.522;2024-02-26T11:50:49;99584.00;;;11.80
22322;BMP180;11328;53.928;18.522;2024-02-26T11:53:31;99581.00;;;11.80
22322;BMP180;11328;53.928;18.522;2024-02-26T11:58:45;99583.00;;;11.90
22322;BMP180;11328;53.928;18.522;2024-02-26T12:01:43;99573.00;;;12.00
22322;BMP180;11328;53.928;18.522;2024-02-26T12:04:21;99580.00;;;12.10
22322;BMP180;11328;53.928;18.522;2024-02-26T12:07:06;99584.00;;;12.10
22322;BMP180;11328;53.928;18.522;2024-02-26T12:12:17;99580.00;;;12.30
22322;BMP180;11328;53.928;18.522;2024-02-26T12:14:58;99576.00;;;12.40
22322;BMP180;11328;53.928;18.522;2024-02-26T12:17:25;99568.00;;;12.40
22322;BMP180;11328;53.928;18.522;2024-02-26T12:19:52;99571.00;;;12.50
22322;BMP180;11328;53.928;18.522;2024-02-26T12:22:21;99582.00;;;12.60
22322;BMP180;11328;53.928;18.522;2024-02-26T12:24:58;99590.00;;;12.70
22322;BMP180;11328;53.928;18.522;2024-02-26T12:27:25;99583.00;;;12.70
22322;BMP180;11328;53.928;18.522;2024-02-26T12:29:55;99587.00;;;12.80
22322;BMP180;11328;53.928;18.522;2024-02-26T12:32:23;99593.00;;;12.90
22322;BMP180;11328;53.928;18.522;2024-02-26T12:34:50;99594.00;;;12.90
22322;BMP180;11328;53.928;18.522;2024-02-26T12:37:18;99601.00;;;12.90
22322;BMP180;11328;53.928;18.522;2024-02-26T12:39:45;99605.00;;;13.00
22322;BMP180;11328;53.928;18.522;2024-02-26T12:42:14;99610.00;;;13.10
22322;BMP180;11328;53.928;18.522;2024-02-26T12:44:41;99617.00;;;13.10
22322;BMP180;11328;53.928;18.522;2024-02-26T12:47:09;99614.00;;;13.10
22322;BMP180;11328;53.928;18.522;2024-02-26T12:49:43;99608.00;;;13.20
22322;BMP180;11328;53.928;18.522;2024-02-26T12:52:14;99613.00;;;13.10
22322;BMP180;11328;53.928;18.522;2024-02-26T12:54:42;99614.00;;;13.10
22322;BMP180;11328;53.928;18.522;2024-02-26T12:57:11;99609.00;;;13.10
22322;BMP180;11328;53.928;18.522;2024-02-26T12:59:39;99614.00;;;13.10
22322;BMP180;11328;53.928;18.522;2024-02-26T13:02:07;99612.00;;;13.00
22322;BMP180;11328;53.928;18.522;2024-02-26T13:04:35;99608.00;;;13.10
22322;BMP180;11328;53.928;18.522;2024-02-26T13:07:04;99613.00;;;13.20
22322;BMP180;11328;53.928;18.522;2024-02-26T13:09:34;99607.00;;;13.10
22322;BMP180;11328;53.928;18.522;2024-02-26T13:12:06;99605.00;;;13.10
22322;BMP180;11328;53.928;18.522;2024-02-26T13:14:35;99603.00;;;13.10
22322;BMP180;11328;53.928;18.522;2024-02-26T13:17:03;99593.00;;;13.10
22322;BMP180;11328;53.928;18.522;2024-02-26T13:19:30;99601.00;;;13.10
22322;BMP180;11328;53.928;18.522;2024-02-26T13:22:07;99602.00;;;13.00
22322;BMP180;11328;53.928;18.522;2024-02-26T13:24:35;99602.00;;;13.00
22322;BMP180;11328;53.928;18.522;2024-02-26T13:27:03;99605.00;;;13.10
22322;BMP180;11328;53.928;18.522;2024-02-26T13:29:33;99603.00;;;13.00
22322;BMP180;11328;53.928;18.522;2024-02-26T13:32:00;99599.00;;;12.90
22322;BMP180;11328;53.928;18.522;2024-02-26T13:34:29;99598.00;;;13.00
22322;BMP180;11328;53.928;18.522;2024-02-26T13:36:57;99589.00;;;13.00
22322;BMP180;11328;53.928;18.522;2024-02-26T13:39:27;99596.00;;;12.90
22322;BMP180;11328;53.928;18.522;2024-02-26T13:41:55;99598.00;;;12.90
22322;BMP180;11328;53.928;18.522;2024-02-26T13:44:24;99599.00;;;12.90
22322;BMP180;11328;53.928;18.522;2024-02-26T13:46:51;99598.00;;;12.90
22322;BMP180;11328;53.928;18.522;2024-02-26T13:49:18;99605.00;;;12.80
22322;BMP180;11328;53.928;18.522;2024-02-26T13:51:46;99601.00;;;12.80
22322;BMP180;11328;53.928;18.522;2024-02-26T13:54:13;99603.00;;;12.80
22322;BMP180;11328;53.928;18.522;2024-02-26T13:56:41;99605.00;;;12.90
22322;BMP180;11328;53.928;18.522;2024-02-26T13:59:13;99608.00;;;12.80
22322;BMP180;11328;53.928;18.522;2024-02-26T14:01:40;99601.00;;;12.70
22322;BMP180;11328;53.928;18.522;2024-02-26T14:04:07;99604.00;;;12.80
22322;BMP180;11328;53.928;18.522;2024-02-26T14:06:36;99609.00;;;12.90
22322;BMP180;11328;53.928;18.522;2024-02-26T14:09:03;99616.00;;;12.90
22322;BMP180;11328;53.928;18.522;2024-02-26T14:11:31;99607.00;;;12.90
22322;BMP180;11328;53.928;18.522;2024-02-26T14:13:58;99607.00;;;12.90
22322;BMP180;11328;53.928;18.522;2024-02-26T14:16:25;99616.00;;;12.80
22322;BMP180;11328;53.928;18.522;2024-02-26T14:18:52;99619.00;;;12.80
22322;BMP180;11328;53.928;18.522;2024-02-26T14:21:19;99625.00;;;12.80